createdAt,value
2023-04-10T00:02:01.420Z,50.08
2023-04-10T00:07:23.692Z,50.01
2023-04-10T00:12:16.067Z,50.25
2023-04-10T00:17:15.971Z,50.38
2023-04-10T00:22:16.704Z,50.50
2023-04-10T00:27:15.863Z,50.55
2023-04-10T00:32:16.007Z,50.59
2023-04-10T00:37:15.703Z,50.65
2023-04-10T00:42:15.686Z,50.72
2023-04-10T00:47:15.587Z,50.80
2023-04-10T00:52:15.554Z,50.86
2023-04-10T00:57:15.578Z,50.94
2023-04-10T01:02:15.529Z,51.09
2023-04-10T01:07:15.364Z,51.24
2023-04-10T01:12:15.303Z,51.36
2023-04-10T01:17:15.188Z,51.43
2023-04-10T01:22:15.160Z,51.48
2023-04-10T01:27:15.109Z,51.55
2023-04-10T01:32:15.024Z,51.68
2023-04-10T01:37:14.977Z,51.85
2023-04-10T01:42:14.931Z,51.97
2023-04-10T01:47:14.837Z,52.04
2023-04-10T01:52:14.778Z,52.11
2023-04-10T01:57:14.702Z,52.14
2023-04-10T02:02:14.724Z,52.21
2023-04-10T02:07:14.622Z,52.32
2023-04-10T02:12:14.512Z,52.40
2023-04-10T02:17:14.426Z,52.50
2023-04-10T02:22:14.378Z,52.64
2023-04-10T02:27:15.244Z,52.72
2023-04-10T02:32:14.244Z,52.76
2023-04-10T02:37:14.173Z,52.81
2023-04-10T02:42:14.101Z,52.93
2023-04-10T02:47:14.043Z,52.98
2023-04-10T02:52:14.768Z,53.07
2023-04-10T02:57:13.920Z,53.19
2023-04-10T03:02:13.946Z,53.30
2023-04-10T03:07:13.767Z,53.44
2023-04-10T03:12:14.141Z,53.54
2023-04-10T03:17:13.978Z,53.66
2023-04-10T03:22:13.610Z,53.82
2023-04-10T03:27:13.522Z,53.99
2023-04-10T03:32:13.454Z,54.09
2023-04-10T03:37:13.384Z,54.18
2023-04-10T03:42:13.346Z,54.27
2023-04-10T03:47:13.289Z,54.33
2023-04-10T03:52:13.214Z,54.38
2023-04-10T03:57:13.113Z,54.45
2023-04-10T04:02:13.165Z,54.55
2023-04-10T04:07:12.976Z,54.66
2023-04-10T04:12:12.925Z,54.74
2023-04-10T04:17:23.852Z,54.68
2023-04-10T04:22:16.217Z,54.90
2023-04-10T04:27:16.164Z,55.07
2023-04-10T04:32:16.246Z,55.16
2023-04-10T04:37:16.055Z,55.18
2023-04-10T04:42:15.996Z,55.20
2023-04-10T04:47:15.944Z,55.20
2023-04-10T04:52:15.837Z,55.22
2023-04-10T04:57:15.802Z,55.22
2023-04-10T05:02:15.782Z,55.18
2023-04-10T05:07:15.688Z,55.08
2023-04-10T05:12:15.591Z,54.93
2023-04-10T05:17:15.539Z,54.80
2023-04-10T05:22:18.036Z,54.65
2023-04-10T05:27:15.403Z,54.49
2023-04-10T05:32:15.328Z,54.37
2023-04-10T05:37:15.261Z,54.23
2023-04-10T05:42:15.188Z,54.15
2023-04-10T05:47:15.142Z,54.04
2023-04-10T05:52:15.053Z,53.98
2023-04-10T05:57:14.995Z,53.91
2023-04-10T06:02:15.040Z,53.64
2023-04-10T06:07:14.866Z,53.29
2023-04-10T06:12:14.795Z,53.01
2023-04-10T06:17:14.727Z,52.90
2023-04-10T06:22:14.653Z,52.54
2023-04-10T06:27:14.594Z,52.12
2023-04-10T06:32:14.525Z,51.62
2023-04-10T06:37:14.475Z,50.61
2023-04-10T06:42:14.401Z,46.41
2023-04-10T06:47:14.342Z,38.20
2023-04-10T06:52:14.291Z,31.27
2023-04-10T06:57:14.234Z,29.74
2023-04-10T07:02:14.205Z,33.28
2023-04-10T07:07:14.102Z,33.92
2023-04-10T07:12:14.003Z,35.65
2023-04-10T07:17:13.951Z,36.03
2023-04-10T07:22:13.872Z,35.55
2023-04-10T07:27:13.826Z,33.98
2023-04-10T07:32:13.776Z,31.82
2023-04-10T07:37:13.704Z,28.88
2023-04-10T07:42:13.689Z,27.66
2023-04-10T07:47:13.567Z,27.83
2023-04-10T07:52:13.495Z,26.98
2023-04-10T07:57:13.430Z,25.15
2023-04-10T08:02:13.387Z,25.34
2023-04-10T08:07:13.329Z,24.83
2023-04-10T08:12:13.216Z,25.83
2023-04-10T08:17:13.181Z,26.52
2023-04-10T08:22:13.134Z,27.02
2023-04-10T08:27:13.043Z,27.95
2023-04-10T08:32:12.989Z,28.99
2023-04-10T08:37:12.895Z,29.11
2023-04-10T08:42:12.869Z,28.99
2023-04-10T08:47:12.813Z,28.30
2023-04-10T08:52:12.702Z,27.75
2023-04-10T08:57:12.666Z,27.52
2023-04-10T09:02:12.649Z,26.23
2023-04-10T09:07:12.515Z,24.67
2023-04-10T09:12:12.452Z,23.24
2023-04-10T09:17:12.362Z,23.35
2023-04-10T09:22:12.292Z,22.27
2023-04-10T09:27:12.249Z,22.18
2023-04-10T09:32:12.153Z,21.34
2023-04-10T09:37:12.125Z,21.17
2023-04-10T09:42:12.098Z,21.11
2023-04-10T09:47:11.963Z,20.25
2023-04-10T09:52:11.965Z,18.77
2023-04-10T09:57:11.839Z,18.59
2023-04-10T10:02:11.861Z,18.91
2023-04-10T10:07:11.684Z,19.25
2023-04-10T10:12:11.640Z,19.77
2023-04-10T10:17:11.608Z,19.73
2023-04-10T10:22:11.505Z,18.68
2023-04-10T10:27:11.511Z,18.20
2023-04-10T10:32:11.411Z,19.08
2023-04-10T10:37:11.501Z,18.73
2023-04-10T10:42:11.231Z,17.82
2023-04-10T10:47:11.180Z,17.05
2023-04-10T10:52:11.106Z,17.26
2023-04-10T10:57:11.093Z,18.96
2023-04-10T11:02:11.049Z,17.01
2023-04-10T11:07:10.992Z,17.01
2023-04-10T11:12:10.859Z,16.94
2023-04-10T11:17:10.804Z,16.68
2023-04-10T11:22:10.737Z,16.36
2023-04-10T11:27:10.663Z,16.55
2023-04-10T11:32:10.710Z,16.93
2023-04-10T11:37:10.545Z,17.28
2023-04-10T11:42:10.463Z,17.76
2023-04-10T11:47:10.466Z,18.56
2023-04-10T11:52:10.340Z,19.19
2023-04-10T11:57:10.261Z,19.95
2023-04-10T12:02:10.268Z,19.90
2023-04-10T12:07:10.173Z,19.71
2023-04-10T12:12:10.049Z,20.45
2023-04-10T12:17:10.015Z,20.82
2023-04-10T12:22:09.915Z,21.64
2023-04-10T12:27:09.832Z,22.20
2023-04-10T12:32:09.764Z,22.58
2023-04-10T12:37:09.757Z,22.84
2023-04-10T12:42:09.650Z,22.81
2023-04-10T12:47:09.628Z,22.73
2023-04-10T12:52:09.586Z,22.68
2023-04-10T12:57:09.543Z,22.67
2023-04-10T13:02:09.551Z,22.73
2023-04-10T13:07:09.335Z,22.70
2023-04-10T13:12:09.286Z,22.77
2023-04-10T13:17:09.251Z,22.50
2023-04-10T13:22:09.158Z,22.47
2023-04-10T13:27:09.053Z,22.37
2023-04-10T13:32:09.032Z,22.79
2023-04-10T13:37:08.968Z,23.45
2023-04-10T13:42:08.875Z,23.98
2023-04-10T13:47:08.940Z,24.07
2023-04-10T13:52:08.740Z,24.34
2023-04-10T13:57:08.682Z,24.69
2023-04-10T14:02:08.735Z,24.94
2023-04-10T14:07:08.519Z,25.25
2023-04-10T14:12:08.465Z,25.39
2023-04-10T14:17:08.383Z,25.39
2023-04-10T14:22:08.730Z,25.77
2023-04-10T14:27:08.245Z,25.93
2023-04-10T14:32:08.265Z,25.90
2023-04-10T14:37:08.121Z,25.75
2023-04-10T14:42:08.161Z,25.65
2023-04-10T14:47:08.032Z,25.62
2023-04-10T14:52:07.948Z,25.91
2023-04-10T14:57:07.908Z,25.92
2023-04-10T15:02:07.882Z,25.87
2023-04-10T15:07:07.736Z,25.78
2023-04-10T15:12:07.890Z,25.84
2023-04-10T15:17:07.767Z,25.93
2023-04-10T15:22:07.574Z,26.03
2023-04-10T15:27:07.455Z,26.02
2023-04-10T15:32:07.395Z,26.20
2023-04-10T15:37:07.395Z,26.29
2023-04-10T15:42:07.303Z,26.14
2023-04-10T15:47:07.300Z,25.93
2023-04-10T15:52:07.257Z,25.81
2023-04-10T15:57:07.094Z,26.18
2023-04-10T16:02:07.052Z,26.70
2023-04-10T16:07:06.945Z,27.15
2023-04-10T16:12:06.916Z,27.43
2023-04-10T16:17:06.821Z,27.75
2023-04-10T16:22:06.744Z,28.06
2023-04-10T16:27:06.693Z,28.32
2023-04-10T16:32:06.598Z,28.61
2023-04-10T16:37:06.552Z,28.88
2023-04-10T16:42:06.462Z,29.16
2023-04-10T16:47:06.479Z,29.48
2023-04-10T16:52:06.406Z,29.90
2023-04-10T16:57:06.285Z,30.23
2023-04-10T17:02:06.262Z,30.47
2023-04-10T17:07:06.212Z,30.68
2023-04-10T17:12:06.082Z,30.92
2023-04-10T17:17:06.039Z,31.16
2023-04-10T17:22:05.967Z,31.32
2023-04-10T17:27:06.001Z,31.41
2023-04-10T17:32:05.828Z,31.49
2023-04-10T17:37:05.748Z,31.60
2023-04-10T17:42:05.657Z,31.67
2023-04-10T17:47:05.611Z,31.79
2023-04-10T17:52:05.571Z,31.95
2023-04-10T17:57:05.484Z,32.10
2023-04-10T18:02:05.429Z,32.26
2023-04-10T18:07:05.370Z,32.40
2023-04-10T18:12:05.298Z,32.61
2023-04-10T18:17:05.260Z,33.05
2023-04-10T18:22:05.140Z,33.91
2023-04-10T18:27:05.090Z,34.71
2023-04-10T18:32:05.024Z,35.52
2023-04-10T18:37:05.184Z,35.93
2023-04-10T18:42:04.873Z,36.74
2023-04-10T18:47:05.334Z,37.28
2023-04-10T18:52:04.733Z,37.55
2023-04-10T18:57:04.691Z,38.02
2023-04-10T19:02:04.646Z,38.65
2023-04-10T19:07:04.518Z,38.76
2023-04-10T19:12:04.502Z,39.09
2023-04-10T19:17:04.413Z,39.91
2023-04-10T19:22:04.329Z,40.14
2023-04-10T19:27:04.278Z,40.55
2023-04-10T19:32:04.236Z,40.89
2023-04-10T19:37:04.170Z,41.05
2023-04-10T19:42:04.136Z,41.43
2023-04-10T19:47:04.079Z,41.51
2023-04-10T19:52:03.933Z,41.70
2023-04-10T19:57:03.910Z,42.14
2023-04-10T20:02:03.849Z,42.58
2023-04-10T20:07:03.800Z,42.84
2023-04-10T20:12:03.687Z,42.74
2023-04-10T20:17:03.601Z,42.75
2023-04-10T20:22:03.554Z,43.04
2023-04-10T20:27:03.490Z,43.19
2023-04-10T20:32:03.447Z,43.66
2023-04-10T20:37:03.344Z,43.66
2023-04-10T20:42:03.258Z,43.59
2023-04-10T20:47:03.251Z,44.44
2023-04-10T20:52:03.181Z,46.04
2023-04-10T20:57:03.099Z,46.61
2023-04-10T21:02:03.093Z,46.65
2023-04-10T21:07:02.946Z,47.45
2023-04-10T21:12:02.888Z,47.90
2023-04-10T21:17:02.865Z,47.77
2023-04-10T21:22:02.767Z,47.93
2023-04-10T21:27:02.719Z,48.73
2023-04-10T21:32:02.674Z,48.80
2023-04-10T21:37:02.568Z,49.04
2023-04-10T21:42:02.529Z,49.39
2023-04-10T21:47:02.477Z,49.92
2023-04-10T21:52:02.342Z,51.70
2023-04-10T21:57:02.322Z,53.01
2023-04-10T22:02:02.236Z,53.98
2023-04-10T22:07:03.759Z,54.88
2023-04-10T22:12:02.103Z,54.62
2023-04-10T22:17:02.052Z,54.93
2023-04-10T22:22:01.954Z,54.71
2023-04-10T22:27:01.973Z,54.44
2023-04-10T22:32:01.826Z,54.27
2023-04-10T22:37:01.782Z,54.17
2023-04-10T22:42:01.789Z,54.15
2023-04-10T22:47:01.622Z,54.19
2023-04-10T22:52:01.536Z,54.24
2023-04-10T22:57:01.490Z,54.32
2023-04-10T23:02:01.499Z,54.33
2023-04-10T23:07:01.373Z,54.40
2023-04-10T23:12:01.272Z,54.47
2023-04-10T23:17:01.227Z,54.48
2023-04-10T23:22:01.129Z,54.65
2023-04-10T23:27:01.099Z,54.78
2023-04-10T23:32:01.028Z,54.88
2023-04-10T23:37:00.944Z,55.03
2023-04-10T23:42:00.873Z,55.10
2023-04-10T23:47:00.957Z,55.48
2023-04-10T23:52:00.741Z,55.42
2023-04-10T23:57:00.687Z,55.43
